This is the latest recevied weather packets stored in our database for station/object OM5AMD-15. If no packets are shown the sender has not sent any weather packets the latest 10 day(s).
| Time | Temp. | Humidity | Pressure | Rain* | Wind** | Luminosity | Snow |
|---|---|---|---|---|---|---|---|
| 1777537825 | 12.78° C | 27% | 1034.7 hPa | 0 mm | - | - | - |
| 1777536019 | 12.22° C | 29% | 1034.7 hPa | 0 mm | - | - | - |
| 1777534843 | 11.11° C | 30% | 1034.7 hPa | 0 mm | - | - | - |
| 1777533037 | 10° C | 32% | 1034.7 hPa | 0 mm | - | - | - |
| 1777532429 | 10° C | 34% | 1034.7 hPa | 0 mm | - | - | - |
| 1777527641 | 5.56° C | 41% | 1034.7 hPa | 0 mm | - | - | - |
| 1777524031 | 3.89° C | 43% | 1034.7 hPa | 0 mm | - | - | - |
| 1777516231 | 4.44° C | 39% | 1033.7 hPa | 0 mm | - | - | - |
| 1777515025 | 4.44° C | 39% | 1033.7 hPa | 0 mm | - | - | - |
| 1777513826 | 5° C | 38% | 1033.7 hPa | 0 mm | - | - | - |
| 1777509629 | 5.56° C | 34% | 1032.6 hPa | 0 mm | - | - | - |
| 1777508424 | 6.11° C | 33% | 1032.6 hPa | 0 mm | - | - | - |
| 1777503625 | 7.78° C | 32% | 1032.6 hPa | 0 mm | - | - | - |
| 1777503017 | 7.78° C | 32% | 1032.6 hPa | 0 mm | - | - | - |
| 1777501231 | 8.33° C | 32% | 1031.6 hPa | 0 mm | - | - | - |
| 1777498837 | 9.44° C | 35% | 1031.6 hPa | 0 mm | - | - | - |
| 1777497619 | 9.44° C | 37% | 1030.6 hPa | 0 mm | - | - | - |
| 1777497028 | 9.44° C | 37% | 1030.6 hPa | 0 mm | - | - | - |
| 1777494619 | 9.44° C | 29% | 1030.6 hPa | 0 mm | - | - | - |
| 1777491054 | 10.56° C | 27% | 1028.7 hPa | 0 mm | - | - | - |
| 1777488031 | 11.67° C | 27% | 1027.6 hPa | 0 mm | - | - | - |
| 1777486849 | 12.22° C | 26% | 1027.6 hPa | 0 mm | - | - | - |
| 1777485632 | 12.78° C | 26% | 1026.7 hPa | 0 mm | - | - | - |
| 1777473643 | 18.33° C | 21% | 1025.6 hPa | 0 mm | - | - | - |
| 1777471249 | 18.89° C | 21% | 1025.6 hPa | 0 mm | - | - | - |
* Rain latest hour (hover to see other rain measurements)
** Current wind speed in m/s (hover to see current wind gust speed)